White Elm, Iowa
Current Conditions -  °F | °C
As of 12:35 AM on Monday 24 Nov 2014 (Local Time) from KFFL Reporting Station
Light Rain Light Rain  
Wind Chill: 26°   Ceiling: 1100
Heat Index: 37°   Visibility: NA
Dew Point: 34°   Wind: 24mph
Humidity: 87%   Direction: 310°NW
Pressure: 29.27"   Gusts: 32mph
Location:  40.8736°N, 92.1109°W
Report Text: KFFL 240635Z AUTO 31021G28KT -RA OVC011 03/01 A2927 RMK AO2
Loading
Personal Weather Stations






























Interactive Weather Map New forecast layout! Learn more

10-Day Weather Forecast

Advertisements
Track Severe Weather on mobile